createdAt,value
2019-02-27T00:01:16.943Z,68.14
2019-02-27T00:03:48.889Z,68.14
2019-02-27T00:06:21.106Z,68.11
2019-02-27T00:08:52.870Z,67.98
2019-02-27T00:11:24.979Z,68.18
2019-02-27T00:13:57.958Z,68.92
2019-02-27T00:16:30.402Z,69.38
2019-02-27T00:19:02.309Z,68.92
2019-02-27T00:21:34.066Z,69.30
2019-02-27T00:24:06.231Z,68.76
2019-02-27T00:26:39.519Z,68.67
2019-02-27T00:29:11.921Z,68.47
2019-02-27T00:31:46.055Z,68.26
2019-02-27T00:34:17.793Z,68.64
2019-02-27T00:36:49.695Z,69.67
2019-02-27T00:39:21.531Z,71.29
2019-02-27T00:41:53.370Z,69.93
2019-02-27T00:44:25.126Z,69.33
2019-02-27T00:46:57.852Z,70.10
2019-02-27T00:49:29.820Z,70.55
2019-02-27T00:52:03.256Z,70.67
2019-02-27T00:54:42.168Z,71.39
2019-02-27T00:57:15.302Z,70.12
2019-02-27T00:59:47.109Z,68.94
2019-02-27T01:02:20.280Z,67.72
2019-02-27T01:04:52.645Z,68.28
2019-02-27T01:07:24.497Z,68.73
2019-02-27T01:09:56.245Z,68.78
2019-02-27T01:12:28.013Z,68.43
2019-02-27T01:14:59.851Z,68.48
2019-02-27T01:17:31.706Z,68.74
2019-02-27T01:20:03.637Z,68.87
2019-02-27T01:22:35.496Z,69.66
2019-02-27T01:25:07.998Z,70.59
2019-02-27T01:27:39.840Z,70.58
2019-02-27T01:30:13.325Z,70.31
2019-02-27T01:32:45.240Z,70.20
2019-02-27T01:35:18.740Z,70.64
2019-02-27T01:37:50.973Z,70.55
2019-02-27T01:40:22.822Z,70.90
2019-02-27T01:42:54.664Z,70.92
2019-02-27T01:45:26.564Z,70.94
2019-02-27T01:47:58.480Z,70.30
2019-02-27T01:50:36.058Z,70.49
2019-02-27T01:53:09.485Z,70.95
2019-02-27T01:55:41.397Z,71.67
2019-02-27T01:58:13.320Z,72.28
2019-02-27T02:00:45.733Z,73.37
2019-02-27T02:03:17.831Z,73.25
2019-02-27T02:05:49.585Z,72.84
2019-02-27T02:08:21.713Z,71.96
2019-02-27T02:10:58.894Z,72.96
2019-02-27T02:13:48.039Z,71.93
2019-02-27T02:17:07.449Z,71.86
2019-02-27T02:20:21.052Z,71.57
2019-02-27T02:24:03.194Z,71.25
2019-02-27T02:27:26.783Z,71.32
2019-02-27T02:30:38.261Z,70.96
2019-02-27T02:34:22.212Z,70.28
2019-02-27T02:37:37.797Z,70.59
2019-02-27T02:41:36.166Z,72.00
2019-02-27T02:45:00.908Z,72.36
2019-02-27T02:48:19.896Z,72.76
2019-02-27T02:51:37.470Z,73.39
2019-02-27T02:55:32.282Z,74.05
2019-02-27T02:59:02.975Z,73.63
2019-02-27T03:02:13.532Z,73.70
2019-02-27T03:05:58.492Z,73.50
2019-02-27T03:08:59.425Z,72.82
2019-02-27T03:12:17.688Z,73.03
2019-02-27T03:15:37.747Z,72.84
2019-02-27T03:19:08.848Z,72.64
2019-02-27T03:22:40.394Z,72.05
2019-02-27T03:25:44.841Z,70.42
2019-02-27T03:29:33.559Z,70.20
2019-02-27T03:32:50.762Z,70.31
2019-02-27T03:36:03.460Z,70.64
2019-02-27T03:39:34.342Z,70.91
2019-02-27T03:42:52.881Z,71.60
2019-02-27T03:46:06.275Z,71.70
2019-02-27T03:49:13.560Z,72.37
2019-02-27T03:52:37.356Z,72.52
2019-02-27T03:56:00.992Z,73.11
2019-02-27T03:58:48.589Z,72.63
2019-02-27T04:02:05.787Z,72.44
2019-02-27T04:05:05.188Z,72.19
2019-02-27T04:08:27.943Z,71.71
2019-02-27T04:11:05.606Z,72.00
2019-02-27T04:13:33.267Z,73.27
2019-02-27T04:16:05.214Z,72.88
2019-02-27T04:18:34.965Z,73.04
2019-02-27T04:21:06.820Z,73.54
2019-02-27T04:23:38.655Z,74.15
2019-02-27T04:28:49.288Z,74.52
2019-02-27T04:31:21.165Z,75.28
2019-02-27T04:33:52.942Z,75.93
2019-02-27T04:36:24.790Z,76.60
2019-02-27T04:38:56.546Z,76.64
2019-02-27T04:41:28.384Z,76.31
2019-02-27T04:44:00.143Z,76.21
2019-02-27T04:46:31.903Z,75.75
2019-02-27T04:49:04.947Z,75.00
2019-02-27T04:51:37.960Z,74.40
2019-02-27T04:54:09.722Z,74.87
2019-02-27T04:56:41.502Z,74.48
2019-02-27T04:59:18.241Z,74.42
2019-02-27T05:01:47.016Z,74.44
2019-02-27T05:04:18.775Z,74.08
2019-02-27T05:06:50.561Z,73.86
2019-02-27T05:09:22.345Z,73.56
2019-02-27T05:11:54.111Z,73.34
2019-02-27T05:14:27.337Z,73.44
2019-02-27T05:16:59.716Z,73.14
2019-02-27T05:19:31.488Z,73.30
2019-02-27T05:22:03.259Z,73.53
2019-02-27T05:24:35.089Z,73.61
2019-02-27T05:27:07.190Z,74.36
2019-02-27T05:29:39.216Z,73.98
2019-02-27T05:32:12.304Z,73.76
2019-02-27T05:34:49.340Z,73.78
2019-02-27T05:37:17.685Z,73.99
2019-02-27T05:39:51.227Z,73.37
2019-02-27T05:42:23.006Z,73.22
2019-02-27T05:44:55.901Z,73.75
2019-02-27T05:47:29.065Z,73.53
2019-02-27T05:50:01.516Z,73.87
2019-02-27T05:52:33.440Z,73.78
2019-02-27T05:55:06.947Z,74.29
2019-02-27T05:57:39.003Z,74.21
2019-02-27T06:00:15.754Z,75.19
2019-02-27T06:02:47.772Z,75.67
2019-02-27T06:05:19.696Z,75.49
2019-02-27T06:07:51.473Z,75.51
2019-02-27T06:10:23.689Z,75.54
2019-02-27T06:12:55.613Z,75.64
2019-02-27T06:15:28.590Z,74.96
2019-02-27T06:18:01.003Z,74.69
2019-02-27T06:20:32.772Z,74.91
2019-02-27T06:23:05.063Z,74.89
2019-02-27T06:25:36.844Z,74.81
2019-02-27T06:28:08.952Z,75.01
2019-02-27T06:30:40.802Z,74.74
2019-02-27T06:33:12.568Z,74.46
2019-02-27T06:35:44.485Z,74.47
2019-02-27T06:38:16.526Z,74.41
2019-02-27T06:40:48.604Z,74.91
2019-02-27T06:43:20.777Z,75.50
2019-02-27T06:45:54.283Z,75.60
2019-02-27T06:48:26.098Z,75.19
2019-02-27T06:50:58.305Z,75.50
2019-02-27T06:53:31.616Z,75.39
2019-02-27T06:56:04.527Z,75.29
2019-02-27T06:58:36.379Z,75.59
2019-02-27T07:01:09.683Z,75.78
2019-02-27T07:03:43.092Z,76.06
2019-02-27T07:06:14.933Z,75.91
2019-02-27T07:08:47.232Z,76.03
2019-02-27T07:11:19.050Z,76.21
2019-02-27T07:13:50.892Z,76.62
2019-02-27T07:16:23.571Z,77.02
2019-02-27T07:18:55.529Z,77.60
2019-02-27T07:21:32.541Z,77.45
2019-02-27T07:24:01.000Z,77.49
2019-02-27T07:26:34.070Z,77.58
2019-02-27T07:29:05.900Z,77.27
2019-02-27T07:31:38.193Z,76.89
2019-02-27T07:34:14.231Z,76.59
2019-02-27T07:36:45.299Z,76.34
2019-02-27T07:39:17.096Z,75.88
2019-02-27T07:41:48.908Z,75.02
2019-02-27T07:44:20.688Z,74.22
2019-02-27T07:46:57.282Z,73.24
2019-02-27T07:49:28.314Z,74.56
2019-02-27T07:51:59.430Z,73.67
2019-02-27T07:54:31.265Z,71.81
2019-02-27T07:57:03.111Z,71.91
2019-02-27T07:59:37.982Z,72.66
2019-02-27T08:02:08.419Z,72.45
2019-02-27T08:04:40.183Z,71.99
2019-02-27T08:07:12.410Z,71.01
2019-02-27T08:09:44.901Z,69.96
2019-02-27T08:12:17.545Z,70.79
2019-02-27T08:14:50.522Z,69.52
2019-02-27T08:17:23.549Z,69.55
2019-02-27T08:19:55.276Z,69.61
2019-02-27T08:22:27.098Z,68.00
2019-02-27T08:24:59.392Z,67.92
2019-02-27T08:27:31.456Z,67.90
2019-02-27T08:30:03.364Z,68.58
2019-02-27T08:32:36.214Z,67.93
2019-02-27T08:35:08.387Z,68.25
2019-02-27T08:37:40.198Z,68.40
2019-02-27T08:40:12.396Z,68.19
2019-02-27T08:42:44.372Z,67.78
2019-02-27T08:45:19.949Z,67.78
2019-02-27T08:47:49.928Z,68.16
2019-02-27T08:50:22.018Z,67.37
2019-02-27T08:52:53.863Z,67.26
2019-02-27T08:55:25.770Z,67.19
2019-02-27T08:57:57.588Z,66.24
2019-02-27T09:00:30.022Z,65.20
2019-02-27T09:03:02.888Z,65.02
2019-02-27T09:05:35.668Z,65.33
2019-02-27T09:08:10.134Z,64.85
2019-02-27T09:10:42.054Z,64.00
2019-02-27T09:13:13.870Z,62.22
2019-02-27T09:15:45.609Z,62.19
2019-02-27T09:18:17.350Z,61.79
2019-02-27T09:20:53.071Z,61.09
2019-02-27T09:23:22.655Z,59.33
2019-02-27T09:25:57.208Z,60.00
2019-02-27T09:28:27.980Z,58.43
2019-02-27T09:31:03.305Z,57.99
2019-02-27T09:33:38.810Z,57.73
2019-02-27T09:36:08.047Z,59.09
2019-02-27T09:38:40.594Z,59.73
2019-02-27T09:41:13.100Z,60.02
2019-02-27T09:43:45.797Z,59.56
2019-02-27T09:46:19.515Z,59.39
2019-02-27T09:48:51.362Z,57.08
2019-02-27T09:51:23.268Z,56.46
2019-02-27T09:53:55.157Z,56.06
2019-02-27T09:56:29.203Z,51.39
2019-02-27T09:59:00.440Z,47.45
2019-02-27T10:01:35.156Z,48.63
2019-02-27T10:04:05.903Z,48.02
2019-02-27T10:06:40.427Z,48.31
2019-02-27T10:09:17.047Z,46.00
2019-02-27T10:11:48.924Z,45.77
2019-02-27T10:14:20.753Z,43.17
2019-02-27T10:16:52.860Z,44.31
2019-02-27T10:19:26.909Z,44.00
2019-02-27T10:21:58.047Z,44.47
2019-02-27T10:24:29.803Z,42.87
2019-02-27T10:27:01.621Z,43.58
2019-02-27T10:29:33.454Z,42.63
2019-02-27T10:32:05.420Z,42.40
2019-02-27T10:34:37.239Z,41.18
2019-02-27T10:37:12.839Z,43.14
2019-02-27T10:39:43.004Z,42.73
2019-02-27T10:42:14.915Z,42.50
2019-02-27T10:44:46.664Z,42.46
2019-02-27T10:47:18.910Z,39.80
2019-02-27T10:49:50.750Z,40.54
2019-02-27T10:52:24.425Z,39.77
2019-02-27T10:54:56.147Z,39.05
2019-02-27T10:57:31.579Z,39.57
2019-02-27T11:00:01.547Z,39.37
2019-02-27T11:02:34.901Z,40.63
2019-02-27T11:05:06.979Z,37.68
2019-02-27T11:07:38.958Z,39.52
2019-02-27T11:10:12.160Z,39.95
2019-02-27T11:12:43.974Z,37.05
2019-02-27T11:15:16.904Z,37.53
2019-02-27T11:17:49.069Z,38.42
2019-02-27T11:20:22.061Z,38.71
2019-02-27T11:22:54.948Z,36.12
2019-02-27T11:25:27.005Z,35.16
2019-02-27T11:27:59.011Z,36.25
2019-02-27T11:30:36.773Z,36.46
2019-02-27T11:33:07.843Z,36.38
2019-02-27T11:35:39.807Z,36.12
2019-02-27T11:38:11.550Z,34.63
2019-02-27T11:40:43.305Z,35.31
2019-02-27T11:43:17.158Z,34.38
2019-02-27T11:45:48.646Z,34.77
2019-02-27T11:48:22.859Z,35.06
2019-02-27T11:50:53.932Z,34.66
2019-02-27T11:53:25.754Z,32.82
2019-02-27T11:55:57.510Z,33.57
2019-02-27T11:58:29.287Z,32.90
2019-02-27T12:01:01.200Z,32.79
2019-02-27T12:03:33.080Z,32.55
2019-02-27T12:06:05.305Z,32.09
2019-02-27T12:08:38.660Z,31.31
2019-02-27T12:11:13.194Z,32.35
2019-02-27T12:13:45.343Z,31.23
2019-02-27T12:16:18.345Z,32.30
2019-02-27T12:18:50.245Z,33.90
2019-02-27T12:21:22.074Z,31.04
2019-02-27T12:23:53.819Z,30.92
2019-02-27T12:26:25.844Z,29.74
2019-02-27T12:28:57.674Z,29.33
2019-02-27T12:31:29.653Z,30.21
2019-02-27T12:34:03.262Z,29.35
2019-02-27T12:36:34.908Z,28.94
2019-02-27T12:39:07.986Z,29.32
2019-02-27T12:41:40.249Z,29.15
2019-02-27T12:44:12.146Z,28.33
2019-02-27T12:46:43.964Z,29.66
2019-02-27T12:49:16.871Z,29.38
2019-02-27T12:51:49.179Z,31.97
2019-02-27T12:54:21.016Z,30.62
2019-02-27T12:56:52.841Z,31.80
2019-02-27T12:59:24.738Z,31.32
2019-02-27T13:01:56.552Z,32.12
2019-02-27T13:04:28.382Z,30.08
2019-02-27T13:07:00.212Z,29.19
2019-02-27T13:09:31.947Z,28.94
2019-02-27T13:12:03.812Z,26.80
2019-02-27T13:14:35.759Z,28.56
2019-02-27T13:17:07.597Z,25.43
2019-02-27T13:19:39.334Z,26.63
2019-02-27T13:22:12.150Z,26.94
2019-02-27T13:24:43.893Z,24.97
2019-02-27T13:27:15.669Z,26.48
2019-02-27T13:29:47.425Z,25.73
2019-02-27T13:32:19.272Z,28.09
2019-02-27T13:34:51.008Z,28.19
2019-02-27T13:37:22.897Z,28.10
2019-02-27T13:39:57.309Z,25.31
2019-02-27T13:42:28.145Z,25.17
2019-02-27T13:45:00.303Z,26.07
2019-02-27T13:47:32.251Z,26.08
2019-02-27T13:50:04.259Z,27.46
2019-02-27T13:52:36.145Z,26.28
2019-02-27T13:55:11.162Z,26.82
2019-02-27T13:57:42.286Z,26.83
2019-02-27T14:00:21.558Z,25.21
2019-02-27T14:02:53.445Z,25.38
2019-02-27T14:05:25.472Z,26.59
2019-02-27T14:07:58.597Z,24.60
2019-02-27T14:10:31.636Z,25.60
2019-02-27T14:13:08.930Z,23.90
2019-02-27T14:15:37.047Z,25.02
2019-02-27T14:18:09.009Z,23.07
2019-02-27T14:20:40.897Z,23.38
2019-02-27T14:23:14.540Z,23.01
2019-02-27T14:25:46.930Z,24.54
2019-02-27T14:28:20.986Z,23.67
2019-02-27T14:30:52.322Z,23.93
2019-02-27T14:33:24.158Z,24.68
2019-02-27T14:35:55.980Z,24.46
2019-02-27T14:38:27.751Z,23.07
2019-02-27T14:40:59.578Z,23.63
2019-02-27T14:43:31.476Z,23.04
2019-02-27T14:46:03.223Z,23.38
2019-02-27T14:48:35.144Z,23.72
2019-02-27T14:51:08.005Z,22.47
2019-02-27T14:53:40.562Z,22.83
2019-02-27T14:56:12.464Z,22.46
2019-02-27T14:58:44.217Z,21.70
2019-02-27T15:01:16.037Z,23.30
2019-02-27T15:03:47.863Z,21.58
2019-02-27T15:06:20.045Z,21.37
2019-02-27T15:08:57.940Z,22.11
2019-02-27T15:11:25.403Z,23.48
2019-02-27T15:13:59.651Z,21.98
2019-02-27T15:16:30.775Z,21.89
2019-02-27T15:19:02.871Z,23.07
2019-02-27T15:21:34.645Z,22.25
2019-02-27T15:24:06.479Z,22.02
2019-02-27T15:26:45.027Z,22.14
2019-02-27T15:29:12.033Z,22.72
2019-02-27T15:31:43.868Z,20.79
2019-02-27T15:34:16.027Z,21.74
2019-02-27T15:36:47.831Z,21.55
2019-02-27T15:39:21.150Z,21.16
2019-02-27T15:41:53.569Z,22.60
2019-02-27T15:44:25.425Z,23.80
2019-02-27T15:46:57.394Z,23.74
2019-02-27T15:49:29.381Z,23.54
2019-02-27T15:52:06.600Z,23.74
2019-02-27T15:54:35.199Z,24.36
2019-02-27T15:57:07.152Z,24.65
2019-02-27T15:59:41.742Z,24.34
2019-02-27T16:02:12.615Z,24.95
2019-02-27T16:04:44.638Z,25.56
2019-02-27T16:07:16.754Z,25.03
2019-02-27T16:09:48.516Z,24.96
2019-02-27T16:12:20.347Z,25.52
2019-02-27T16:14:52.410Z,25.92
2019-02-27T16:17:24.222Z,25.53
2019-02-27T16:19:56.956Z,26.05
2019-02-27T16:22:31.371Z,25.25
2019-02-27T16:25:02.384Z,25.32
2019-02-27T16:27:35.724Z,26.47
2019-02-27T16:30:11.302Z,26.76
2019-02-27T16:32:47.760Z,27.58
2019-02-27T16:35:16.898Z,29.63
2019-02-27T16:37:48.794Z,31.74
2019-02-27T16:40:20.810Z,31.26
2019-02-27T16:42:52.698Z,32.50
2019-02-27T16:45:31.852Z,33.04
2019-02-27T16:48:01.951Z,33.70
2019-02-27T16:50:34.039Z,34.12
2019-02-27T16:53:05.993Z,33.72
2019-02-27T16:55:39.511Z,34.40
2019-02-27T16:58:12.372Z,34.14
2019-02-27T17:00:44.324Z,35.00
2019-02-27T17:03:17.394Z,35.54
2019-02-27T17:08:28.413Z,36.88
2019-02-27T17:11:00.258Z,37.30
2019-02-27T17:13:32.139Z,37.12
2019-02-27T17:16:04.125Z,38.04
2019-02-27T17:18:36.195Z,37.38
2019-02-27T17:21:07.943Z,38.58
2019-02-27T17:23:43.786Z,37.97
2019-02-27T17:26:14.307Z,38.46
2019-02-27T17:28:48.671Z,39.58
2019-02-27T17:31:19.596Z,40.00
2019-02-27T17:33:51.398Z,40.54
2019-02-27T17:36:23.170Z,40.40
2019-02-27T17:38:56.128Z,40.66
2019-02-27T17:41:27.895Z,40.94
2019-02-27T17:44:03.721Z,41.66
2019-02-27T17:46:34.131Z,42.11
2019-02-27T17:49:07.327Z,42.47
2019-02-27T17:51:40.505Z,43.08
2019-02-27T17:54:13.611Z,43.40
2019-02-27T17:56:47.183Z,43.59
2019-02-27T17:59:20.048Z,43.78
2019-02-27T18:01:52.670Z,43.83
2019-02-27T18:04:26.134Z,44.18
2019-02-27T18:07:00.538Z,44.63
2019-02-27T18:09:31.424Z,44.74
2019-02-27T18:12:03.344Z,45.02
2019-02-27T18:14:35.091Z,44.87
2019-02-27T18:17:07.586Z,45.02
2019-02-27T18:19:39.359Z,45.23
2019-02-27T18:22:14.712Z,45.40
2019-02-27T18:24:45.255Z,45.74
2019-02-27T18:27:17.536Z,45.46
2019-02-27T18:29:49.475Z,46.58
2019-02-27T18:32:21.299Z,47.22
2019-02-27T18:34:54.685Z,47.80
2019-02-27T18:37:26.698Z,48.06
2019-02-27T18:39:58.705Z,48.75
2019-02-27T18:42:30.583Z,49.02
2019-02-27T18:45:02.432Z,48.88
2019-02-27T18:47:35.274Z,48.91
2019-02-27T18:50:08.266Z,48.42
2019-02-27T18:52:40.300Z,48.85
2019-02-27T18:55:13.047Z,49.22
2019-02-27T18:57:47.133Z,49.54
2019-02-27T19:00:21.818Z,48.90
2019-02-27T19:02:55.035Z,49.41
2019-02-27T19:05:26.911Z,48.91
2019-02-27T19:07:58.845Z,48.93
2019-02-27T19:10:30.937Z,49.82
2019-02-27T19:13:02.944Z,50.34
2019-02-27T19:15:35.149Z,50.87
2019-02-27T19:18:07.505Z,50.89
2019-02-27T19:20:39.617Z,51.52
2019-02-27T19:23:17.399Z,51.40
2019-02-27T19:25:45.610Z,51.48
2019-02-27T19:28:17.850Z,51.89
2019-02-27T19:30:49.810Z,52.08
2019-02-27T19:33:21.818Z,51.82
2019-02-27T19:35:56.343Z,52.19
2019-02-27T19:38:29.121Z,52.11
2019-02-27T19:41:01.301Z,52.33
2019-02-27T19:43:34.934Z,52.10
2019-02-27T19:46:09.563Z,52.40
2019-02-27T19:48:40.584Z,52.53
2019-02-27T19:51:12.551Z,53.01
2019-02-27T19:53:44.554Z,53.29
2019-02-27T19:56:16.555Z,53.26
2019-02-27T19:58:51.122Z,53.40
2019-02-27T20:01:21.984Z,53.43
2019-02-27T20:03:53.815Z,54.14
2019-02-27T20:06:27.984Z,54.07
2019-02-27T20:08:59.199Z,54.12
2019-02-27T20:11:31.109Z,54.15
2019-02-27T20:14:03.238Z,54.72
2019-02-27T20:16:35.037Z,54.61
2019-02-27T20:19:06.945Z,55.29
2019-02-27T20:21:38.839Z,55.36
2019-02-27T20:24:14.713Z,54.76
2019-02-27T20:26:45.363Z,55.20
2019-02-27T20:29:17.748Z,54.97
2019-02-27T20:31:51.468Z,55.79
2019-02-27T20:34:22.949Z,56.11
2019-02-27T20:36:54.736Z,56.26
2019-02-27T20:39:27.615Z,55.99
2019-02-27T20:41:59.436Z,55.90
2019-02-27T20:44:33.937Z,56.26
2019-02-27T20:47:05.025Z,56.02
2019-02-27T20:49:36.787Z,56.28
2019-02-27T20:52:14.516Z,56.12
2019-02-27T20:54:42.053Z,56.47
2019-02-27T20:57:13.811Z,56.67
2019-02-27T20:59:45.575Z,56.54
2019-02-27T21:02:18.659Z,56.40
2019-02-27T21:04:50.910Z,56.98
2019-02-27T21:07:26.063Z,56.51
2019-02-27T21:09:56.471Z,56.78
2019-02-27T21:12:28.469Z,57.35
2019-02-27T21:15:00.945Z,57.22
2019-02-27T21:17:32.785Z,57.51
2019-02-27T21:20:05.126Z,57.55
2019-02-27T21:22:36.882Z,57.82
2019-02-27T21:25:12.078Z,58.29
2019-02-27T21:27:44.075Z,58.28
2019-02-27T21:30:18.804Z,58.70
2019-02-27T21:32:51.905Z,58.98
2019-02-27T21:35:28.888Z,60.02
2019-02-27T21:37:58.307Z,59.53
2019-02-27T21:40:30.062Z,59.55
2019-02-27T21:43:01.883Z,59.56
2019-02-27T21:45:37.121Z,59.45
2019-02-27T21:48:07.478Z,60.09
2019-02-27T21:50:39.895Z,60.30
2019-02-27T21:53:12.314Z,60.35
2019-02-27T21:55:44.690Z,59.58
2019-02-27T21:58:20.675Z,59.41
2019-02-27T22:00:52.028Z,59.44
2019-02-27T22:03:23.906Z,59.33
2019-02-27T22:05:55.798Z,59.08
2019-02-27T22:08:27.625Z,59.28
2019-02-27T22:10:59.533Z,59.86
2019-02-27T22:13:32.343Z,60.34
2019-02-27T22:16:04.266Z,60.75
2019-02-27T22:18:36.066Z,61.40
2019-02-27T22:21:07.892Z,61.05
2019-02-27T22:23:40.078Z,61.64
2019-02-27T22:26:11.810Z,61.46
2019-02-27T22:28:43.668Z,61.61
2019-02-27T22:31:15.416Z,61.59
2019-02-27T22:33:47.486Z,62.20
2019-02-27T22:36:19.253Z,62.29
2019-02-27T22:38:51.072Z,62.24
2019-02-27T22:41:22.926Z,62.21
2019-02-27T22:43:55.745Z,61.92
2019-02-27T22:46:28.266Z,62.29
2019-02-27T22:49:01.207Z,61.85
2019-02-27T22:51:33.001Z,62.26
2019-02-27T22:54:04.940Z,63.26
2019-02-27T22:56:36.709Z,62.87
2019-02-27T22:59:08.554Z,62.46
2019-02-27T23:01:49.410Z,62.10
2019-02-27T23:04:18.303Z,62.91
2019-02-27T23:06:50.132Z,62.87
2019-02-27T23:09:25.115Z,63.01
2019-02-27T23:11:55.826Z,62.89
2019-02-27T23:14:27.683Z,62.63
2019-02-27T23:17:00.564Z,63.53
2019-02-27T23:19:33.181Z,63.92
2019-02-27T23:22:05.181Z,63.24
2019-02-27T23:24:37.087Z,63.90
2019-02-27T23:27:08.985Z,63.65
2019-02-27T23:29:40.832Z,63.58
2019-02-27T23:32:13.627Z,63.58
2019-02-27T23:34:45.380Z,63.80
2019-02-27T23:37:17.275Z,63.07
2019-02-27T23:39:49.063Z,63.14
2019-02-27T23:42:21.005Z,63.50
2019-02-27T23:44:52.932Z,63.48
2019-02-27T23:47:24.795Z,63.44
2019-02-27T23:49:56.670Z,63.55
2019-02-27T23:52:28.493Z,63.19
2019-02-27T23:55:00.367Z,63.94
2019-02-27T23:57:32.106Z,63.76
